Wetterdaten: Woche 19.09.16 - 25.09.16 (KW38)
Datum Zeit Temperatur Luftfeuchte Luftdruck Niederschlag Windrichtung Sonnenschein Solar Wind
19.09.2016 00:00 12,3 C 99 % 1011,9 hPa 0,0 l/m N-NO 0,00 h 0 W/m 7,1 km/h (2 Bft)
19.09.2016 01:00 12,0 C 99 % 1012,2 hPa 0,0 l/m N 0,00 h 0 W/m 7,5 km/h (2 Bft)
19.09.2016 02:00 11,9 C 99 % 1012,4 hPa 0,0 l/m N 0,00 h 0 W/m 4,0 km/h (1 Bft)
19.09.2016 03:00 11,9 C 99 % 1012,8 hPa 0,0 l/m N-NW 0,00 h 0 W/m 3,5 km/h (1 Bft)
19.09.2016 04:00 11,9 C 99 % 1013,2 hPa 0,2 l/m NW 0,00 h 0 W/m 2,9 km/h (1 Bft)
19.09.2016 05:00 12,1 C 99 % 1013,5 hPa 0,0 l/m NW 0,00 h 0 W/m 6,8 km/h (2 Bft)
19.09.2016 06:00 12,1 C 99 % 1013,7 hPa 0,0 l/m W-NW 0,00 h 0 W/m 5,5 km/h (1 Bft)
19.09.2016 07:00 12,0 C 98 % 1014,0 hPa 0,0 l/m W-NW 0,00 h 17 W/m 5,3 km/h (1 Bft)
19.09.2016 08:00 12,4 C 98 % 1014,2 hPa 0,0 l/m W-NW 0,00 h 52 W/m 5,3 km/h (1 Bft)
19.09.2016 09:00 12,9 C 97 % 1014,5 hPa 0,0 l/m NW 0,00 h 117 W/m 9,1 km/h (2 Bft)
19.09.2016 10:00 13,5 C 94 % 1015,3 hPa 0,0 l/m NW 0,00 h 171 W/m 9,0 km/h (2 Bft)
19.09.2016 11:00 13,7 C 91 % 1015,6 hPa 0,0 l/m NW 0,25 h 224 W/m 6,5 km/h (2 Bft)
19.09.2016 12:00 14,8 C 81 % 1015,6 hPa 0,0 l/m N-NW 0,08 h 347 W/m 12,4 km/h (3 Bft)
19.09.2016 13:00 15,0 C 75 % 1015,7 hPa 0,0 l/m N-NW 0,00 h 296 W/m 10,9 km/h (2 Bft)
19.09.2016 14:00 15,1 C 74 % 1015,6 hPa 0,0 l/m N-NO 0,50 h 340 W/m 15,3 km/h (3 Bft)
19.09.2016 15:00 15,1 C 74 % 1015,6 hPa 0,0 l/m N-NO 0,08 h 254 W/m 12,8 km/h (3 Bft)
19.09.2016 16:00 14,7 C 75 % 1015,8 hPa 0,0 l/m N-NO 0,00 h 172 W/m 10,6 km/h (2 Bft)
19.09.2016 17:00 14,3 C 78 % 1016,0 hPa 0,0 l/m N-NO 0,00 h 84 W/m 6,2 km/h (2 Bft)
19.09.2016 18:00 13,8 C 78 % 1016,1 hPa 0,0 l/m N-NO 0,00 h 41 W/m 2,5 km/h (1 Bft)
19.09.2016 19:00 12,4 C 90 % 1016,1 hPa 0,0 l/m N 0,00 h 8 W/m 0,0 km/h (0 Bft)
19.09.2016 20:00 11,8 C 94 % 1016,5 hPa 0,0 l/m N 0,00 h 0 W/m 0,0 km/h (0 Bft)
19.09.2016 21:00 11,4 C 95 % 1016,7 hPa 0,0 l/m N 0,00 h 0 W/m 0,0 km/h (0 Bft)
19.09.2016 22:00 11,2 C 95 % 1016,7 hPa 0,0 l/m N 0,00 h 0 W/m 0,0 km/h (0 Bft)
19.09.2016 23:00 10,9 C 96 % 1016,6 hPa 0,0 l/m N 0,00 h 0 W/m 0,0 km/h (0 Bft)
20.09.2016 00:00 11,1 C 96 % 1016,5 hPa 0,0 l/m N 0,00 h 0 W/m 0,0 km/h (0 Bft)
20.09.2016 01:00 11,2 C 96 % 1016,3 hPa 0,0 l/m N 0,00 h 0 W/m 0,4 km/h (0 Bft)
20.09.2016 02:00 11,1 C 96 % 1016,1 hPa 0,0 l/m N 0,00 h 0 W/m 0,1 km/h (0 Bft)
20.09.2016 03:00 11,1 C 96 % 1015,8 hPa 0,0 l/m N 0,00 h 0 W/m 0,0 km/h (0 Bft)
20.09.2016 04:00 11,0 C 96 % 1015,6 hPa 0,0 l/m N 0,00 h 0 W/m 0,0 km/h (0 Bft)
20.09.2016 05:00 10,9 C 97 % 1015,4 hPa 0,0 l/m N 0,00 h 0 W/m 0,3 km/h (0 Bft)
20.09.2016 06:00 10,9 C 97 % 1015,5 hPa 0,0 l/m N-NO 0,00 h 0 W/m 0,7 km/h (0 Bft)
20.09.2016 07:00 11,0 C 97 % 1015,6 hPa 0,0 l/m N-NO 0,00 h 22 W/m 3,6 km/h (1 Bft)
20.09.2016 08:00 11,3 C 96 % 1015,7 hPa 0,0 l/m N-NO 0,00 h 57 W/m 4,8 km/h (1 Bft)
20.09.2016 09:00 11,6 C 95 % 1015,8 hPa 0,0 l/m N-NO 0,25 h 164 W/m 5,1 km/h (1 Bft)
20.09.2016 10:00 12,8 C 89 % 1015,9 hPa 0,0 l/m NO 0,50 h 318 W/m 7,5 km/h (2 Bft)
20.09.2016 11:00 14,1 C 82 % 1015,6 hPa 0,0 l/m NO 1,00 h 510 W/m 12,1 km/h (2 Bft)
20.09.2016 12:00 14,6 C 80 % 1015,3 hPa 0,0 l/m NO 0,33 h 333 W/m 15,6 km/h (3 Bft)
20.09.2016 13:00 15,5 C 74 % 1015,4 hPa 0,0 l/m O 0,67 h 520 W/m 15,8 km/h (3 Bft)
20.09.2016 14:00 14,9 C 77 % 1015,2 hPa 0,0 l/m NO 0,33 h 300 W/m 14,4 km/h (3 Bft)
20.09.2016 15:00 14,7 C 72 % 1015,0 hPa 0,0 l/m O 0,00 h 212 W/m 14,4 km/h (3 Bft)
20.09.2016 16:00 14,5 C 73 % 1014,9 hPa 0,0 l/m NO 0,00 h 153 W/m 14,5 km/h (3 Bft)
20.09.2016 17:00 14,0 C 75 % 1014,9 hPa 0,0 l/m O-NO 0,00 h 66 W/m 15,2 km/h (3 Bft)
20.09.2016 18:00 13,5 C 76 % 1015,2 hPa 0,0 l/m O-NO 0,00 h 35 W/m 8,3 km/h (2 Bft)
20.09.2016 19:00 12,6 C 78 % 1015,6 hPa 0,0 l/m O-NO 0,00 h 9 W/m 6,2 km/h (2 Bft)
20.09.2016 20:00 12,2 C 82 % 1016,0 hPa 0,0 l/m O-NO 0,00 h 0 W/m 5,7 km/h (1 Bft)
20.09.2016 21:00 11,9 C 85 % 1016,1 hPa 0,0 l/m O-NO 0,00 h 0 W/m 4,1 km/h (1 Bft)
20.09.2016 22:00 11,8 C 86 % 1016,2 hPa 0,0 l/m O-NO 0,00 h 0 W/m 3,9 km/h (1 Bft)
20.09.2016 23:00 11,3 C 89 % 1016,3 hPa 0,0 l/m O-NO 0,00 h 0 W/m 3,2 km/h (1 Bft)
21.09.2016 00:00 10,1 C 92 % 1016,3 hPa 0,0 l/m O-NO 0,00 h 0 W/m 5,6 km/h (1 Bft)
21.09.2016 01:00 9,1 C 95 % 1016,2 hPa 0,0 l/m NO 0,00 h 0 W/m 6,7 km/h (2 Bft)
21.09.2016 02:00 8,3 C 96 % 1016,0 hPa 0,0 l/m N-NO 0,00 h 0 W/m 4,1 km/h (1 Bft)
21.09.2016 03:00 7,9 C 96 % 1015,7 hPa 0,0 l/m N-NO 0,00 h 0 W/m 6,1 km/h (2 Bft)
21.09.2016 04:00 7,6 C 96 % 1015,8 hPa 0,0 l/m N-NO 0,00 h 0 W/m 4,1 km/h (1 Bft)
21.09.2016 05:00 7,0 C 96 % 1015,9 hPa 0,0 l/m N 0,00 h 0 W/m 0,0 km/h (0 Bft)
21.09.2016 06:00 6,7 C 97 % 1015,9 hPa 0,0 l/m N 0,00 h 0 W/m 0,8 km/h (0 Bft)
21.09.2016 07:00 6,9 C 98 % 1016,2 hPa 0,0 l/m N-NO 0,00 h 21 W/m 4,8 km/h (1 Bft)
21.09.2016 08:00 7,9 C 97 % 1016,3 hPa 0,0 l/m N-NO 0,00 h 79 W/m 4,5 km/h (1 Bft)
21.09.2016 09:00 9,3 C 96 % 1016,5 hPa 0,0 l/m N-NO 0,00 h 151 W/m 6,7 km/h (2 Bft)
21.09.2016 10:00 11,0 C 89 % 1016,8 hPa 0,0 l/m NO 0,58 h 322 W/m 9,3 km/h (2 Bft)
21.09.2016 11:00 13,2 C 77 % 1016,8 hPa 0,0 l/m O-NO 1,00 h 678 W/m 15,0 km/h (3 Bft)
21.09.2016 12:00 14,7 C 65 % 1016,7 hPa 0,0 l/m O 1,00 h 729 W/m 17,8 km/h (3 Bft)
21.09.2016 13:00 15,8 C 60 % 1016,8 hPa 0,0 l/m O-SO 1,00 h 661 W/m 16,2 km/h (3 Bft)
21.09.2016 14:00 16,1 C 60 % 1016,6 hPa 0,0 l/m O-NO 0,83 h 577 W/m 12,3 km/h (3 Bft)
21.09.2016 15:00 15,9 C 62 % 1016,4 hPa 0,0 l/m O-NO 0,83 h 481 W/m 12,1 km/h (2 Bft)
21.09.2016 16:00 15,4 C 65 % 1016,3 hPa 0,0 l/m NO 0,08 h 159 W/m 13,4 km/h (3 Bft)
21.09.2016 17:00 14,6 C 67 % 1016,5 hPa 0,0 l/m O-NO 0,00 h 128 W/m 13,4 km/h (3 Bft)
21.09.2016 18:00 14,0 C 69 % 1016,7 hPa 0,0 l/m NO 0,00 h 54 W/m 8,4 km/h (2 Bft)
21.09.2016 19:00 13,0 C 74 % 1017,1 hPa 0,0 l/m O-NO 0,08 h 10 W/m 4,8 km/h (1 Bft)
21.09.2016 20:00 11,4 C 84 % 1017,7 hPa 0,0 l/m N 0,00 h 0 W/m 0,3 km/h (0 Bft)
21.09.2016 21:00 9,7 C 90 % 1018,0 hPa 0,0 l/m N 0,00 h 0 W/m 0,1 km/h (0 Bft)
21.09.2016 22:00 8,8 C 92 % 1018,1 hPa 0,0 l/m N 0,00 h 0 W/m 0,0 km/h (0 Bft)
21.09.2016 23:00 8,2 C 94 % 1018,4 hPa 0,0 l/m N 0,00 h 0 W/m 0,1 km/h (0 Bft)
22.09.2016 00:00 7,8 C 95 % 1018,7 hPa 0,0 l/m O-NO 0,00 h 0 W/m 1,1 km/h (0 Bft)
22.09.2016 01:00 7,5 C 95 % 1018,8 hPa 0,0 l/m O-NO 0,00 h 0 W/m 4,5 km/h (1 Bft)
22.09.2016 02:00 7,2 C 96 % 1018,9 hPa 0,0 l/m O-NO 0,00 h 0 W/m 4,0 km/h (1 Bft)
22.09.2016 03:00 6,8 C 96 % 1019,1 hPa 0,0 l/m NO 0,00 h 0 W/m 5,3 km/h (1 Bft)
22.09.2016 04:00 6,5 C 97 % 1019,4 hPa 0,0 l/m N 0,00 h 0 W/m 0,8 km/h (0 Bft)
22.09.2016 05:00 6,3 C 97 % 1019,4 hPa 0,0 l/m N 0,00 h 0 W/m 1,7 km/h (1 Bft)
22.09.2016 06:00 6,0 C 97 % 1019,5 hPa 0,0 l/m NO 0,00 h 0 W/m 1,9 km/h (1 Bft)
22.09.2016 07:00 5,9 C 98 % 1019,8 hPa 0,0 l/m N 0,25 h 28 W/m 1,7 km/h (1 Bft)
22.09.2016 08:00 6,9 C 98 % 1020,2 hPa 0,0 l/m N 0,75 h 142 W/m 0,1 km/h (0 Bft)
22.09.2016 09:00 8,6 C 97 % 1020,4 hPa 0,0 l/m NO 1,00 h 323 W/m 1,2 km/h (1 Bft)
22.09.2016 10:00 11,4 C 88 % 1020,7 hPa 0,0 l/m NO 1,00 h 474 W/m 2,4 km/h (1 Bft)
22.09.2016 11:00 13,9 C 81 % 1020,6 hPa 0,0 l/m O-NO 0,92 h 583 W/m 2,7 km/h (1 Bft)
22.09.2016 12:00 15,9 C 75 % 1020,5 hPa 0,0 l/m O 1,00 h 647 W/m 3,3 km/h (1 Bft)
22.09.2016 13:00 16,7 C 70 % 1020,1 hPa 0,0 l/m O 0,50 h 424 W/m 4,0 km/h (1 Bft)
22.09.2016 14:00 18,1 C 65 % 1019,7 hPa 0,0 l/m O 0,67 h 468 W/m 7,5 km/h (2 Bft)
22.09.2016 15:00 18,6 C 61 % 1019,4 hPa 0,0 l/m O 0,83 h 483 W/m 8,9 km/h (2 Bft)
22.09.2016 16:00 18,6 C 62 % 1019,2 hPa 0,0 l/m O-NO 1,00 h 348 W/m 7,4 km/h (2 Bft)
22.09.2016 17:00 18,3 C 62 % 1019,2 hPa 0,0 l/m O-NO 0,42 h 174 W/m 3,9 km/h (1 Bft)
22.09.2016 18:00 16,1 C 78 % 1019,4 hPa 0,0 l/m N 0,08 h 63 W/m 0,8 km/h (0 Bft)
22.09.2016 19:00 13,9 C 88 % 1019,8 hPa 0,0 l/m N 0,00 h 9 W/m 0,7 km/h (0 Bft)
22.09.2016 20:00 12,3 C 91 % 1020,2 hPa 0,0 l/m N 0,00 h 0 W/m 0,3 km/h (0 Bft)
22.09.2016 21:00 11,5 C 93 % 1020,5 hPa 0,0 l/m N 0,00 h 0 W/m 0,0 km/h (0 Bft)
22.09.2016 22:00 10,6 C 94 % 1020,6 hPa 0,0 l/m N 0,00 h 0 W/m 0,0 km/h (0 Bft)
22.09.2016 23:00 9,7 C 96 % 1020,8 hPa 0,0 l/m N 0,00 h 0 W/m 0,0 km/h (0 Bft)
23.09.2016 00:00 9,2 C 97 % 1020,9 hPa 0,0 l/m N 0,00 h 0 W/m 0,0 km/h (0 Bft)
23.09.2016 01:00 8,5 C 97 % 1021,2 hPa 0,0 l/m N 0,00 h 0 W/m 0,0 km/h (0 Bft)
23.09.2016 02:00 7,8 C 98 % 1021,4 hPa 0,0 l/m N 0,00 h 0 W/m 0,0 km/h (0 Bft)
23.09.2016 03:00 7,1 C 98 % 1021,7 hPa 0,0 l/m N 0,00 h 0 W/m 0,0 km/h (0 Bft)
23.09.2016 04:00 6,7 C 98 % 1021,9 hPa 0,0 l/m N 0,00 h 0 W/m 0,0 km/h (0 Bft)
23.09.2016 05:00 6,8 C 98 % 1021,8 hPa 0,0 l/m N 0,00 h 0 W/m 0,0 km/h (0 Bft)
23.09.2016 06:00 7,1 C 98 % 1022,0 hPa 0,0 l/m N 0,00 h 0 W/m 0,0 km/h (0 Bft)
23.09.2016 07:00 7,7 C 98 % 1022,5 hPa 0,0 l/m N 0,08 h 20 W/m 0,0 km/h (0 Bft)
23.09.2016 08:00 8,8 C 98 % 1023,2 hPa 0,0 l/m N 0,00 h 52 W/m 0,3 km/h (0 Bft)
23.09.2016 09:00 10,4 C 99 % 1023,7 hPa 0,0 l/m O 0,00 h 124 W/m 2,5 km/h (1 Bft)
23.09.2016 10:00 12,0 C 99 % 1024,0 hPa 0,0 l/m O 0,17 h 209 W/m 6,0 km/h (2 Bft)
23.09.2016 11:00 14,1 C 95 % 1024,0 hPa 0,0 l/m O 0,83 h 406 W/m 5,7 km/h (1 Bft)
23.09.2016 12:00 16,2 C 85 % 1023,9 hPa 0,0 l/m SO 0,83 h 491 W/m 4,7 km/h (1 Bft)
23.09.2016 13:00 16,8 C 78 % 1023,8 hPa 0,0 l/m SO 0,33 h 340 W/m 2,4 km/h (1 Bft)
23.09.2016 14:00 17,3 C 75 % 1023,7 hPa 0,0 l/m N 0,25 h 318 W/m 1,5 km/h (1 Bft)
23.09.2016 15:00 18,4 C 70 % 1023,4 hPa 0,0 l/m S-SW 0,75 h 408 W/m 4,4 km/h (1 Bft)
23.09.2016 16:00 18,0 C 72 % 1023,5 hPa 0,0 l/m S-SW 0,42 h 241 W/m 4,1 km/h (1 Bft)
23.09.2016 17:00 17,8 C 73 % 1023,7 hPa 0,0 l/m S-SW 0,33 h 133 W/m 2,1 km/h (1 Bft)
23.09.2016 18:00 16,5 C 85 % 1024,0 hPa 0,0 l/m N 0,33 h 51 W/m 0,0 km/h (0 Bft)
23.09.2016 19:00 15,6 C 85 % 1024,4 hPa 0,0 l/m S-SW 0,17 h 10 W/m 1,6 km/h (1 Bft)
23.09.2016 20:00 13,7 C 88 % 1024,8 hPa 0,0 l/m N 0,00 h 0 W/m 0,0 km/h (0 Bft)
23.09.2016 21:00 11,9 C 93 % 1025,1 hPa 0,0 l/m N 0,00 h 0 W/m 0,5 km/h (0 Bft)
23.09.2016 22:00 11,2 C 94 % 1025,4 hPa 0,0 l/m N 0,00 h 0 W/m 0,0 km/h (0 Bft)
23.09.2016 23:00 10,1 C 96 % 1025,4 hPa 0,0 l/m N 0,00 h 0 W/m 0,0 km/h (0 Bft)
24.09.2016 00:00 9,5 C 96 % 1025,3 hPa 0,0 l/m N 0,00 h 0 W/m 0,0 km/h (0 Bft)
24.09.2016 01:00 9,0 C 96 % 1025,2 hPa 0,0 l/m N 0,00 h 0 W/m 0,1 km/h (0 Bft)
24.09.2016 02:00 8,8 C 97 % 1025,0 hPa 0,0 l/m N 0,00 h 0 W/m 0,0 km/h (0 Bft)
24.09.2016 03:00 8,4 C 97 % 1024,6 hPa 0,0 l/m N 0,00 h 0 W/m 0,0 km/h (0 Bft)
24.09.2016 04:00 8,4 C 97 % 1024,4 hPa 0,0 l/m SW 0,00 h 0 W/m 4,5 km/h (1 Bft)
24.09.2016 05:00 8,4 C 97 % 1024,4 hPa 0,0 l/m W-NW 0,00 h 0 W/m 6,3 km/h (2 Bft)
24.09.2016 06:00 7,9 C 97 % 1024,4 hPa 0,0 l/m W-NW 0,00 h 0 W/m 2,3 km/h (1 Bft)
24.09.2016 07:00 7,7 C 98 % 1024,5 hPa 0,0 l/m W-NW 0,00 h 27 W/m 2,0 km/h (1 Bft)
24.09.2016 08:00 8,9 C 98 % 1024,6 hPa 0,0 l/m W-NW 0,75 h 136 W/m 0,8 km/h (0 Bft)
24.09.2016 09:00 10,6 C 95 % 1025,0 hPa 0,0 l/m NW 1,00 h 307 W/m 9,0 km/h (2 Bft)
24.09.2016 10:00 13,3 C 88 % 1025,0 hPa 0,0 l/m N-NO 1,00 h 448 W/m 6,9 km/h (2 Bft)
24.09.2016 11:00 16,0 C 80 % 1024,7 hPa 0,0 l/m NO 0,92 h 563 W/m 10,3 km/h (2 Bft)
24.09.2016 12:00 18,2 C 71 % 1024,1 hPa 0,0 l/m O 1,00 h 629 W/m 15,2 km/h (3 Bft)
24.09.2016 13:00 19,7 C 65 % 1023,4 hPa 0,0 l/m O-SO 1,00 h 632 W/m 14,8 km/h (3 Bft)
24.09.2016 14:00 20,3 C 62 % 1022,8 hPa 0,0 l/m NO 1,00 h 577 W/m 13,0 km/h (3 Bft)
24.09.2016 15:00 20,7 C 58 % 1022,2 hPa 0,0 l/m O-NO 1,00 h 489 W/m 13,4 km/h (3 Bft)
24.09.2016 16:00 20,7 C 56 % 1021,8 hPa 0,0 l/m O-NO 1,00 h 361 W/m 10,9 km/h (2 Bft)
24.09.2016 17:00 20,0 C 57 % 1021,5 hPa 0,0 l/m O-SO 0,92 h 191 W/m 11,0 km/h (2 Bft)
24.09.2016 18:00 18,8 C 65 % 1021,1 hPa 0,0 l/m O-SO 0,00 h 41 W/m 3,7 km/h (1 Bft)
24.09.2016 19:00 14,8 C 84 % 1021,0 hPa 0,0 l/m N 0,00 h 8 W/m 0,0 km/h (0 Bft)
24.09.2016 20:00 13,1 C 90 % 1021,1 hPa 0,0 l/m N 0,00 h 0 W/m 0,9 km/h (0 Bft)
24.09.2016 21:00 12,6 C 92 % 1020,9 hPa 0,0 l/m N 0,00 h 0 W/m 0,5 km/h (0 Bft)
24.09.2016 22:00 12,0 C 93 % 1020,8 hPa 0,0 l/m O 0,00 h 0 W/m 2,4 km/h (1 Bft)
24.09.2016 23:00 11,2 C 95 % 1020,7 hPa 0,0 l/m N 0,00 h 0 W/m 0,0 km/h (0 Bft)
25.09.2016 00:00 10,3 C 96 % 1020,7 hPa 0,0 l/m N 0,00 h 0 W/m 0,0 km/h (0 Bft)
25.09.2016 01:00 9,8 C 97 % 1020,5 hPa 0,0 l/m N 0,00 h 0 W/m 0,0 km/h (0 Bft)
25.09.2016 02:00 9,4 C 97 % 1020,3 hPa 0,0 l/m N 0,00 h 0 W/m 0,9 km/h (0 Bft)
25.09.2016 03:00 8,6 C 98 % 1020,0 hPa 0,0 l/m N 0,00 h 0 W/m 0,0 km/h (0 Bft)
25.09.2016 04:00 7,4 C 98 % 1019,9 hPa 0,0 l/m N 0,00 h 0 W/m 0,0 km/h (0 Bft)
25.09.2016 05:00 6,5 C 98 % 1019,9 hPa 0,0 l/m N 0,00 h 0 W/m 0,0 km/h (0 Bft)
25.09.2016 06:00 5,9 C 98 % 1020,0 hPa 0,0 l/m N 0,00 h 0 W/m 0,0 km/h (0 Bft)
25.09.2016 07:00 6,7 C 99 % 1020,2 hPa 0,2 l/m N 0,00 h 17 W/m 0,0 km/h (0 Bft)
25.09.2016 08:00 7,5 C 99 % 1020,3 hPa 0,0 l/m N 0,00 h 69 W/m 0,4 km/h (0 Bft)
25.09.2016 09:00 9,3 C 100 % 1020,3 hPa 0,0 l/m N 0,00 h 145 W/m 0,0 km/h (0 Bft)
25.09.2016 10:00 11,0 C 100 % 1020,1 hPa 0,0 l/m O-SO 0,00 h 219 W/m 2,8 km/h (1 Bft)
25.09.2016 11:00 12,4 C 100 % 1019,8 hPa 0,0 l/m O-SO 0,25 h 307 W/m 4,1 km/h (1 Bft)
25.09.2016 12:00 16,4 C 91 % 1019,3 hPa 0,0 l/m SO 1,00 h 631 W/m 6,1 km/h (2 Bft)
25.09.2016 13:00 19,5 C 78 % 1018,6 hPa 0,0 l/m S-SW 1,00 h 638 W/m 7,4 km/h (2 Bft)
25.09.2016 14:00 21,3 C 62 % 1018,0 hPa 0,0 l/m S 1,00 h 591 W/m 5,7 km/h (1 Bft)
25.09.2016 15:00 22,0 C 57 % 1017,5 hPa 0,0 l/m S 1,00 h 497 W/m 3,6 km/h (1 Bft)
25.09.2016 16:00 22,2 C 54 % 1017,4 hPa 0,0 l/m S 1,00 h 357 W/m 4,5 km/h (1 Bft)
25.09.2016 17:00 21,4 C 59 % 1017,6 hPa 0,0 l/m N 0,83 h 180 W/m 3,2 km/h (1 Bft)
25.09.2016 18:00 18,1 C 78 % 1017,9 hPa 0,0 l/m N 0,00 h 36 W/m 0,0 km/h (0 Bft)
25.09.2016 19:00 15,3 C 84 % 1018,5 hPa 0,0 l/m N 0,08 h 8 W/m 0,1 km/h (0 Bft)
25.09.2016 20:00 13,7 C 89 % 1019,0 hPa 0,0 l/m S 0,00 h 0 W/m 0,9 km/h (0 Bft)
25.09.2016 21:00 12,7 C 92 % 1019,2 hPa 0,0 l/m N 0,00 h 0 W/m 0,0 km/h (0 Bft)
25.09.2016 22:00 12,7 C 94 % 1019,4 hPa 0,0 l/m N 0,00 h 0 W/m 0,0 km/h (0 Bft)
25.09.2016 23:00 12,7 C 95 % 1019,6 hPa 0,0 l/m N 0,00 h 0 W/m 0,0 km/h (0 Bft)
Min-Datum _ 25.09.16 25.09.16 19.09.16 - - - - 19.09.16
_ Min-Zeit 06:15 16:10 00:00 - - - - 02:30
Minimum _ 5,6 C 53 % 1011,8 hPa - - - - 0,0 km/h (0 Bft)
Max-Datum _ 25.09.16 21.09.16 23.09.16 19.09.16 - 19.09.16 20.09.16 21.09.16
_ Max-Zeit 15:45 04:35 23:30 04:45 - 11:45 13:30 12:10
Maximum _ 22,6 C 100 % 1025,6 hPa 0,2 l/m - 0,08 h 981 W/m 27,4 km/h
O-SO (4 Bft)
Durchschnitt _ 12,3 C 87 % 1019,0 hPa #0,4 l/m O-NO #38:05 h 263 W/m 4,4 km/h (1 Bft)